createdAt,value
2023-05-02T00:00:48.566Z,0.30
2023-05-02T00:03:17.712Z,0.32
2023-05-02T00:05:46.238Z,0.35
2023-05-02T00:08:14.625Z,0.30
2023-05-02T00:10:43.047Z,0.70
2023-05-02T00:13:11.346Z,0.68
2023-05-02T00:15:39.411Z,0.70
2023-05-02T00:18:08.475Z,0.62
2023-05-02T00:20:36.928Z,0.40
2023-05-02T00:23:05.187Z,0.57
2023-05-02T00:25:33.754Z,0.30
2023-05-02T00:28:01.979Z,0.90
2023-05-02T00:30:30.110Z,0.60
2023-05-02T00:32:58.922Z,0.30
2023-05-02T00:35:27.396Z,0.55
2023-05-02T00:37:55.894Z,0.30
2023-05-02T00:40:24.787Z,0.95
2023-05-02T00:42:53.604Z,0.77
2023-05-02T00:45:21.680Z,0.68
2023-05-02T00:47:51.056Z,0.52
2023-05-02T00:50:19.306Z,0.52
2023-05-02T00:52:47.505Z,0.50
2023-05-02T00:55:16.637Z,0.60
2023-05-02T00:57:44.856Z,0.52
2023-05-02T01:00:13.582Z,0.25
2023-05-02T01:02:58.768Z,0.60
2023-05-02T01:05:49.021Z,0.17
2023-05-02T01:08:36.176Z,0.80
2023-05-02T01:11:16.550Z,0.50
2023-05-02T01:13:46.344Z,0.60
2023-05-02T01:16:17.250Z,0.50
2023-05-02T01:18:50.148Z,0.20
2023-05-02T01:21:19.096Z,0.40
2023-05-02T01:24:11.047Z,0.32
2023-05-02T01:27:15.766Z,0.50
2023-05-02T01:29:45.561Z,0.50
2023-05-02T01:32:16.287Z,0.35
2023-05-02T01:34:47.552Z,0.30
2023-05-02T01:37:18.503Z,0.28
2023-05-02T01:39:49.045Z,0.50
2023-05-02T01:42:19.525Z,0.57
2023-05-02T01:44:49.710Z,0.50
2023-05-02T01:47:19.911Z,0.55
2023-05-02T01:49:49.812Z,0.47
2023-05-02T01:52:23.046Z,0.28
2023-05-02T01:54:53.764Z,0.30
2023-05-02T01:57:21.870Z,0.40
2023-05-02T01:59:51.543Z,0.20
2023-05-02T02:02:21.461Z,0.40
2023-05-02T02:04:51.824Z,0.50
2023-05-02T02:07:20.267Z,0.43
2023-05-02T02:09:48.560Z,0.50
2023-05-02T02:12:24.726Z,0.62
2023-05-02T02:15:14.833Z,0.37
2023-05-02T02:17:46.720Z,0.93
2023-05-02T02:20:17.066Z,0.50
2023-05-02T02:22:46.681Z,0.40
2023-05-02T02:25:17.276Z,0.73
2023-05-02T02:27:47.326Z,0.70
2023-05-02T02:30:16.590Z,0.60
2023-05-02T02:32:44.996Z,0.50
2023-05-02T02:35:13.951Z,0.20
2023-05-02T02:37:52.049Z,0.40
2023-05-02T02:40:25.171Z,0.30
2023-05-02T02:43:20.773Z,0.32
2023-05-02T02:48:54.591Z,0.80
2023-05-02T02:51:35.894Z,0.50
2023-05-02T02:54:26.814Z,0.50
2023-05-02T02:57:10.367Z,0.22
2023-05-02T02:59:44.892Z,0.43
2023-05-02T03:04:47.460Z,0.68
2023-05-02T03:07:16.133Z,0.90
2023-05-02T03:09:46.507Z,0.50
2023-05-02T03:12:15.718Z,0.40
2023-05-02T03:14:44.587Z,0.57
2023-05-02T03:17:12.878Z,0.62
2023-05-02T03:19:42.276Z,0.52
2023-05-02T03:22:10.883Z,0.47
2023-05-02T03:24:39.150Z,0.50
2023-05-02T03:27:07.649Z,0.30
2023-05-02T03:29:36.850Z,0.80
2023-05-02T03:32:05.579Z,0.40
2023-05-02T03:34:34.860Z,0.35
2023-05-02T03:37:03.492Z,0.45
2023-05-02T03:39:32.192Z,0.45
2023-05-02T03:42:01.804Z,0.90
2023-05-02T03:44:30.503Z,0.60
2023-05-02T03:46:58.687Z,0.75
2023-05-02T03:49:27.629Z,0.30
2023-05-02T03:51:56.403Z,0.80
2023-05-02T03:54:25.361Z,0.57
2023-05-02T03:56:54.855Z,0.62
2023-05-02T03:59:24.317Z,0.40
2023-05-02T04:01:52.793Z,0.50
2023-05-02T04:04:22.239Z,0.60
2023-05-02T04:06:50.698Z,0.60
2023-05-02T04:09:25.418Z,0.50
2023-05-02T04:11:54.844Z,0.30
2023-05-02T04:14:23.814Z,0.77
2023-05-02T04:16:53.592Z,0.45
2023-05-02T04:19:22.758Z,0.50
2023-05-02T04:21:51.397Z,0.60
2023-05-02T04:24:19.929Z,0.32
2023-05-02T04:26:49.042Z,0.45
2023-05-02T04:29:17.249Z,0.52
2023-05-02T04:31:45.751Z,0.68
2023-05-02T04:34:15.065Z,0.60
2023-05-02T04:36:46.727Z,0.90
2023-05-02T04:39:16.178Z,1.02
2023-05-02T04:41:46.343Z,0.40
2023-05-02T04:44:15.419Z,0.70
2023-05-02T04:46:44.901Z,1.02
2023-05-02T04:49:14.016Z,0.65
2023-05-02T04:51:42.937Z,0.98
2023-05-02T04:54:12.172Z,1.05
2023-05-02T04:56:41.550Z,0.85
2023-05-02T04:59:10.562Z,0.60
2023-05-02T05:01:38.999Z,0.50
2023-05-02T05:04:08.637Z,0.73
2023-05-02T05:06:38.072Z,0.70
2023-05-02T05:09:07.173Z,0.75
2023-05-02T05:11:35.754Z,0.32
2023-05-02T05:14:05.332Z,0.80
2023-05-02T05:16:34.855Z,0.70
2023-05-02T05:19:04.398Z,0.98
2023-05-02T05:21:32.934Z,0.70
2023-05-02T05:24:02.359Z,0.50
2023-05-02T05:26:30.972Z,0.60
2023-05-02T05:28:59.563Z,0.90
2023-05-02T05:31:28.583Z,1.08
2023-05-02T05:33:57.784Z,0.98
2023-05-02T05:36:26.690Z,0.93
2023-05-02T05:38:54.856Z,0.98
2023-05-02T05:41:24.800Z,1.05
2023-05-02T05:43:54.294Z,1.15
2023-05-02T05:46:23.267Z,1.05
2023-05-02T05:48:54.960Z,1.35
2023-05-02T05:51:24.574Z,1.12
2023-05-02T05:53:52.912Z,1.10
2023-05-02T05:56:22.948Z,1.48
2023-05-02T05:58:52.481Z,1.02
2023-05-02T06:01:20.750Z,0.68
2023-05-02T06:03:50.030Z,1.17
2023-05-02T06:06:19.818Z,0.90
2023-05-02T06:08:48.674Z,0.70
2023-05-02T06:11:16.945Z,0.62
2023-05-02T06:13:45.642Z,1.10
2023-05-02T06:16:15.162Z,0.90
2023-05-02T06:18:43.393Z,1.10
2023-05-02T06:21:11.790Z,0.93
2023-05-02T06:23:41.105Z,1.00
2023-05-02T06:26:10.346Z,0.95
2023-05-02T06:28:38.919Z,0.80
2023-05-02T06:31:07.809Z,1.23
2023-05-02T06:33:36.726Z,0.75
2023-05-02T06:36:05.458Z,0.70
2023-05-02T06:38:33.904Z,0.90
2023-05-02T06:41:01.952Z,0.77
2023-05-02T06:43:30.230Z,1.00
2023-05-02T06:45:58.862Z,1.20
2023-05-02T06:48:27.013Z,0.88
2023-05-02T06:50:55.728Z,0.88
2023-05-02T06:53:24.110Z,1.00
2023-05-02T06:55:52.391Z,0.98
2023-05-02T06:58:20.673Z,0.90
2023-05-02T07:00:50.473Z,0.80
2023-05-02T07:03:18.968Z,1.25
2023-05-02T07:05:47.227Z,1.10
2023-05-02T07:08:15.645Z,1.12
2023-05-02T07:10:43.877Z,1.40
2023-05-02T07:13:12.226Z,0.80
2023-05-02T07:15:40.618Z,0.80
2023-05-02T07:18:08.766Z,0.85
2023-05-02T07:20:38.972Z,0.73
2023-05-02T07:23:07.567Z,1.10
2023-05-02T07:25:36.711Z,1.40
2023-05-02T07:28:05.603Z,1.33
2023-05-02T07:30:34.210Z,1.00
2023-05-02T07:33:02.835Z,1.20
2023-05-02T07:35:31.446Z,0.95
2023-05-02T07:38:00.013Z,1.15
2023-05-02T07:40:28.665Z,1.08
2023-05-02T07:42:58.181Z,1.40
2023-05-02T07:45:26.816Z,1.23
2023-05-02T07:47:55.099Z,1.20
2023-05-02T07:50:24.196Z,1.30
2023-05-02T07:52:55.316Z,1.33
2023-05-02T07:55:27.396Z,1.20
2023-05-02T07:57:56.138Z,1.00
2023-05-02T08:00:24.505Z,1.30
2023-05-02T08:02:53.376Z,1.37
2023-05-02T08:05:21.961Z,1.20
2023-05-02T08:07:49.990Z,1.00
2023-05-02T08:10:19.444Z,1.20
2023-05-02T08:12:47.586Z,1.42
2023-05-02T08:15:15.809Z,1.12
2023-05-02T08:17:44.441Z,1.35
2023-05-02T08:20:12.898Z,1.12
2023-05-02T08:22:41.072Z,1.02
2023-05-02T08:25:10.033Z,1.10
2023-05-02T08:27:38.340Z,1.10
2023-05-02T08:30:07.725Z,1.60
2023-05-02T08:32:37.563Z,1.20
2023-05-02T08:35:06.788Z,1.05
2023-05-02T08:37:35.025Z,1.17
2023-05-02T08:40:04.546Z,1.20
2023-05-02T08:42:33.674Z,1.30
2023-05-02T08:45:02.613Z,1.20
2023-05-02T08:47:32.243Z,1.48
2023-05-02T08:50:01.596Z,1.62
2023-05-02T08:52:32.719Z,0.90
2023-05-02T08:55:03.882Z,1.70
2023-05-02T08:57:32.832Z,1.00
2023-05-02T09:00:01.834Z,1.40
2023-05-02T09:03:03.720Z,1.08
2023-05-02T09:05:39.782Z,1.20
2023-05-02T09:08:08.765Z,1.30
2023-05-02T09:10:37.816Z,1.17
2023-05-02T09:13:28.383Z,1.20
2023-05-02T09:16:00.619Z,1.08
2023-05-02T09:18:31.100Z,1.33
2023-05-02T09:21:01.238Z,1.40
2023-05-02T09:23:41.029Z,0.85
2023-05-02T09:26:14.967Z,1.40
2023-05-02T09:28:54.143Z,1.33
2023-05-02T09:31:49.915Z,1.27
2023-05-02T09:34:17.451Z,1.20
2023-05-02T09:36:51.982Z,1.10
2023-05-02T09:39:25.847Z,1.35
2023-05-02T09:44:36.518Z,1.20
2023-05-02T09:47:06.898Z,1.10
2023-05-02T09:49:45.059Z,0.95
2023-05-02T09:52:18.321Z,1.00
2023-05-02T09:54:47.226Z,1.10
2023-05-02T09:57:16.293Z,0.98
2023-05-02T09:59:55.893Z,1.20
2023-05-02T10:02:25.189Z,0.93
2023-05-02T10:04:57.101Z,1.25
2023-05-02T10:07:26.492Z,1.05
2023-05-02T10:09:58.577Z,1.00
2023-05-02T10:12:30.736Z,1.08
2023-05-02T10:15:02.998Z,1.20
2023-05-02T10:17:34.234Z,0.95
2023-05-02T10:20:07.903Z,1.08
2023-05-02T10:22:37.268Z,1.02
2023-05-02T10:25:07.078Z,0.98
2023-05-02T10:27:35.521Z,0.90
2023-05-02T10:30:06.549Z,0.88
2023-05-02T10:32:38.294Z,1.10
2023-05-02T10:35:08.304Z,1.00
2023-05-02T10:37:40.517Z,0.98
2023-05-02T10:40:13.630Z,1.00
2023-05-02T10:42:48.291Z,0.90
2023-05-02T10:45:35.921Z,1.00
2023-05-02T10:48:13.595Z,0.90
2023-05-02T10:50:58.163Z,0.90
2023-05-02T10:53:33.602Z,1.23
2023-05-02T10:56:22.199Z,1.27
2023-05-02T10:58:53.853Z,1.10
2023-05-02T11:01:26.324Z,1.10
2023-05-02T11:04:01.716Z,0.98
2023-05-02T11:06:53.796Z,1.25
2023-05-02T11:09:22.553Z,0.95
2023-05-02T11:11:55.554Z,1.30
2023-05-02T11:14:33.467Z,1.02
2023-05-02T11:17:01.656Z,1.33
2023-05-02T11:19:54.251Z,1.02
2023-05-02T11:22:24.063Z,1.10
2023-05-02T11:24:53.149Z,0.95
2023-05-02T11:27:30.716Z,1.20
2023-05-02T11:30:05.838Z,1.17
2023-05-02T11:32:49.836Z,1.02
2023-05-02T11:35:20.551Z,1.10
2023-05-02T11:37:59.984Z,1.15
2023-05-02T11:40:29.354Z,1.42
2023-05-02T11:42:59.942Z,0.95
2023-05-02T11:45:36.603Z,1.10
2023-05-02T11:48:06.993Z,0.85
2023-05-02T11:50:51.047Z,1.15
2023-05-02T11:53:25.608Z,1.02
2023-05-02T11:55:59.101Z,0.95
2023-05-02T11:58:33.510Z,1.03
2023-05-02T12:01:16.589Z,1.30
2023-05-02T12:03:45.975Z,1.12
2023-05-02T12:06:19.396Z,0.98
2023-05-02T12:08:49.365Z,0.98
2023-05-02T12:11:17.672Z,1.10
2023-05-02T12:13:48.712Z,1.10
2023-05-02T12:16:18.404Z,1.10
2023-05-02T12:18:48.018Z,1.33
2023-05-02T12:21:18.063Z,0.88
2023-05-02T12:23:46.888Z,1.23
2023-05-02T12:26:25.753Z,1.23
2023-05-02T12:28:55.228Z,1.17
2023-05-02T12:31:23.982Z,1.10
2023-05-02T12:33:55.474Z,1.10
2023-05-02T12:36:24.722Z,0.95
2023-05-02T12:38:59.930Z,1.25
2023-05-02T12:41:37.471Z,0.80
2023-05-02T12:44:07.848Z,1.33
2023-05-02T12:46:36.755Z,0.90
2023-05-02T12:49:08.531Z,1.02
2023-05-02T12:51:38.867Z,0.85
2023-05-02T12:54:07.455Z,0.88
2023-05-02T12:56:39.963Z,0.80
2023-05-02T12:59:09.599Z,0.98
2023-05-02T13:01:37.832Z,0.90
2023-05-02T13:04:06.764Z,0.90
2023-05-02T13:06:37.956Z,0.93
2023-05-02T13:09:07.549Z,0.95
2023-05-02T13:11:36.684Z,0.70
2023-05-02T13:14:05.984Z,0.75
2023-05-02T13:16:36.822Z,1.00
2023-05-02T13:19:05.873Z,1.00
2023-05-02T13:21:34.021Z,1.08
2023-05-02T13:24:04.377Z,1.00
2023-05-02T13:26:33.531Z,0.80
2023-05-02T13:29:02.044Z,0.57
2023-05-02T13:31:30.634Z,0.88
2023-05-02T13:33:59.649Z,1.00
2023-05-02T13:36:27.944Z,1.00
2023-05-02T13:38:56.821Z,0.90
2023-05-02T13:41:26.141Z,1.30
2023-05-02T13:43:55.369Z,1.10
2023-05-02T13:46:23.927Z,0.88
2023-05-02T13:48:52.616Z,1.20
2023-05-02T13:51:21.060Z,1.00
2023-05-02T13:53:49.422Z,0.80
2023-05-02T13:56:18.627Z,1.30
2023-05-02T13:58:46.925Z,1.00
2023-05-02T14:01:15.778Z,0.95
2023-05-02T14:03:45.836Z,1.20
2023-05-02T14:06:14.138Z,1.00
2023-05-02T14:08:42.984Z,1.17
2023-05-02T14:11:11.736Z,0.88
2023-05-02T14:13:40.260Z,1.02
2023-05-02T14:16:08.530Z,0.90
2023-05-02T14:18:37.058Z,0.70
2023-05-02T14:21:05.973Z,0.77
2023-05-02T14:23:35.440Z,0.95
2023-05-02T14:26:04.213Z,1.00
2023-05-02T14:28:32.711Z,0.90
2023-05-02T14:31:14.389Z,1.25
2023-05-02T14:33:43.213Z,1.10
2023-05-02T14:36:12.635Z,1.02
2023-05-02T14:38:41.076Z,1.00
2023-05-02T14:41:10.136Z,0.95
2023-05-02T14:43:39.648Z,0.82
2023-05-02T14:46:08.037Z,0.98
2023-05-02T14:48:36.475Z,1.20
2023-05-02T14:51:06.697Z,1.12
2023-05-02T14:53:35.158Z,1.00
2023-05-02T14:56:04.117Z,1.00
2023-05-02T14:58:32.616Z,1.05
2023-05-02T15:01:01.865Z,1.15
2023-05-02T15:03:30.548Z,1.20
2023-05-02T15:05:59.292Z,0.75
2023-05-02T15:08:27.957Z,1.10
2023-05-02T15:10:57.138Z,0.90
2023-05-02T15:13:25.305Z,1.10
2023-05-02T15:15:55.715Z,0.88
2023-05-02T15:18:24.341Z,1.50
2023-05-02T15:20:52.660Z,2.35
2023-05-02T15:23:21.686Z,2.05
2023-05-02T15:25:50.218Z,1.45
2023-05-02T15:28:18.376Z,1.10
2023-05-02T15:30:46.952Z,0.95
2023-05-02T15:33:16.484Z,1.10
2023-05-02T15:35:57.100Z,1.20
2023-05-02T15:38:25.956Z,0.95
2023-05-02T15:40:57.748Z,1.30
2023-05-02T15:43:26.864Z,1.35
2023-05-02T15:45:56.646Z,1.30
2023-05-02T15:48:28.427Z,1.40
2023-05-02T15:50:57.587Z,1.70
2023-05-02T15:53:25.863Z,1.58
2023-05-02T15:55:54.633Z,1.12
2023-05-02T15:58:23.197Z,1.02
2023-05-02T16:00:52.578Z,1.00
2023-05-02T16:03:21.695Z,0.88
2023-05-02T16:05:52.843Z,0.80
2023-05-02T16:08:21.499Z,0.88
2023-05-02T16:10:50.319Z,0.80
2023-05-02T16:13:19.137Z,0.90
2023-05-02T16:15:48.472Z,0.95
2023-05-02T16:18:16.899Z,1.00
2023-05-02T16:20:45.171Z,1.52
2023-05-02T16:23:13.615Z,0.93
2023-05-02T16:25:42.023Z,1.23
2023-05-02T16:28:10.205Z,1.02
2023-05-02T16:30:38.677Z,1.20
2023-05-02T16:33:07.434Z,1.10
2023-05-02T16:35:35.482Z,0.98
2023-05-02T16:38:04.161Z,0.88
2023-05-02T16:40:32.715Z,1.08
2023-05-02T16:43:01.514Z,1.00
2023-05-02T16:45:29.912Z,0.80
2023-05-02T16:48:03.678Z,0.90
2023-05-02T16:50:32.363Z,0.88
2023-05-02T16:53:00.934Z,1.20
2023-05-02T16:55:29.650Z,1.10
2023-05-02T16:57:58.134Z,1.25
2023-05-02T17:00:26.532Z,1.10
2023-05-02T17:02:57.271Z,1.40
2023-05-02T17:05:26.197Z,1.40
2023-05-02T17:07:54.483Z,1.00
2023-05-02T17:10:24.095Z,1.00
2023-05-02T17:12:55.982Z,1.20
2023-05-02T17:15:24.073Z,0.80
2023-05-02T17:17:52.912Z,1.17
2023-05-02T17:20:21.643Z,1.35
2023-05-02T17:22:49.878Z,1.05
2023-05-02T17:25:18.756Z,1.33
2023-05-02T17:27:46.932Z,1.52
2023-05-02T17:30:15.334Z,1.50
2023-05-02T17:32:45.459Z,1.85
2023-05-02T17:35:14.438Z,1.20
2023-05-02T17:37:42.719Z,1.05
2023-05-02T17:40:12.526Z,1.60
2023-05-02T17:42:49.099Z,1.33
2023-05-02T17:45:18.189Z,1.25
2023-05-02T17:47:46.698Z,1.60
2023-05-02T17:50:15.281Z,1.92
2023-05-02T17:52:44.268Z,1.58
2023-05-02T17:55:12.526Z,1.80
2023-05-02T17:57:40.817Z,1.60
2023-05-02T18:00:10.201Z,1.33
2023-05-02T18:02:39.999Z,1.75
2023-05-02T18:05:08.993Z,1.87
2023-05-02T18:07:38.452Z,1.25
2023-05-02T18:10:07.864Z,1.37
2023-05-02T18:12:36.334Z,1.30
2023-05-02T18:15:06.017Z,1.45
2023-05-02T18:17:35.086Z,1.23
2023-05-02T18:20:06.489Z,1.37
2023-05-02T18:22:35.693Z,1.90
2023-05-02T18:25:04.600Z,1.52
2023-05-02T18:27:34.268Z,2.33
2023-05-02T18:30:03.749Z,1.77
2023-05-02T18:32:35.208Z,2.20
2023-05-02T18:35:09.784Z,2.30
2023-05-02T18:37:38.212Z,1.60
2023-05-02T18:40:11.321Z,1.77
2023-05-02T18:42:43.061Z,1.60
2023-05-02T18:45:11.857Z,1.12
2023-05-02T18:47:42.007Z,1.37
2023-05-02T18:50:10.298Z,1.58
2023-05-02T18:52:40.282Z,1.10
2023-05-02T18:55:08.949Z,0.90
2023-05-02T18:57:40.284Z,1.17
2023-05-02T19:00:09.512Z,1.10
2023-05-02T19:02:38.369Z,1.33
2023-05-02T19:05:10.922Z,1.30
2023-05-02T19:07:42.596Z,1.50
2023-05-02T19:10:11.421Z,1.65
2023-05-02T19:12:41.841Z,1.27
2023-05-02T19:15:11.767Z,1.05
2023-05-02T19:17:41.349Z,1.58
2023-05-02T19:20:10.767Z,1.30
2023-05-02T19:22:39.174Z,1.10
2023-05-02T19:25:09.608Z,1.15
2023-05-02T19:27:38.487Z,1.15
2023-05-02T19:30:13.633Z,1.42
2023-05-02T19:32:42.528Z,1.45
2023-05-02T19:35:11.389Z,1.67
2023-05-02T19:37:39.816Z,1.25
2023-05-02T19:40:08.865Z,1.70
2023-05-02T19:42:37.661Z,1.48
2023-05-02T19:45:06.719Z,1.60
2023-05-02T19:47:35.501Z,1.67
2023-05-02T19:50:04.806Z,2.00
2023-05-02T19:52:34.936Z,1.40
2023-05-02T19:55:03.841Z,1.67
2023-05-02T19:57:32.318Z,1.90
2023-05-02T20:00:00.734Z,1.37
2023-05-02T20:02:29.565Z,1.48
2023-05-02T20:04:58.342Z,1.60
2023-05-02T20:07:26.406Z,1.48
2023-05-02T20:09:55.008Z,1.90
2023-05-02T20:12:24.299Z,1.37
2023-05-02T20:14:52.582Z,1.73
2023-05-02T20:17:20.982Z,1.48
2023-05-02T20:19:49.701Z,1.65
2023-05-02T20:22:18.389Z,1.25
2023-05-02T20:24:46.441Z,1.30
2023-05-02T20:27:14.921Z,1.58
2023-05-02T20:29:43.485Z,1.55
2023-05-02T20:32:11.853Z,1.02
2023-05-02T20:34:40.755Z,1.25
2023-05-02T20:37:10.306Z,1.30
2023-05-02T20:39:38.458Z,1.30
2023-05-02T20:42:07.027Z,0.98
2023-05-02T20:44:36.590Z,1.10
2023-05-02T20:47:04.773Z,1.08
2023-05-02T20:49:33.712Z,1.17
2023-05-02T20:52:05.863Z,1.40
2023-05-02T20:54:34.669Z,0.90
2023-05-02T20:57:03.721Z,1.42
2023-05-02T20:59:32.141Z,0.93
2023-05-02T21:02:00.783Z,0.98
2023-05-02T21:04:28.884Z,1.27
2023-05-02T21:06:57.491Z,1.37
2023-05-02T21:09:26.170Z,1.15
2023-05-02T21:11:54.510Z,1.23
2023-05-02T21:14:24.942Z,0.90
2023-05-02T21:16:53.711Z,1.20
2023-05-02T21:19:22.286Z,1.08
2023-05-02T21:21:50.580Z,1.30
2023-05-02T21:24:19.044Z,0.93
2023-05-02T21:26:47.222Z,1.05
2023-05-02T21:29:15.589Z,1.27
2023-05-02T21:31:46.359Z,0.85
2023-05-02T21:34:14.821Z,1.27
2023-05-02T21:36:43.455Z,0.90
2023-05-02T21:39:12.060Z,1.40
2023-05-02T21:41:40.659Z,0.95
2023-05-02T21:44:11.214Z,1.00
2023-05-02T21:46:40.851Z,1.17
2023-05-02T21:49:08.981Z,1.10
2023-05-02T21:51:40.915Z,0.95
2023-05-02T21:54:09.420Z,1.08
2023-05-02T21:56:37.830Z,1.10
2023-05-02T21:59:06.633Z,1.10
2023-05-02T22:01:35.150Z,1.15
2023-05-02T22:04:03.648Z,1.20
2023-05-02T22:06:33.806Z,1.20
2023-05-02T22:09:02.352Z,1.17
2023-05-02T22:11:32.250Z,1.25
2023-05-02T22:14:00.739Z,0.90
2023-05-02T22:16:28.785Z,1.23
2023-05-02T22:18:58.090Z,1.40
2023-05-02T22:21:27.458Z,1.20
2023-05-02T22:23:56.446Z,1.40
2023-05-02T22:26:25.144Z,1.23
2023-05-02T22:28:53.818Z,0.85
2023-05-02T22:31:22.533Z,1.20
2023-05-02T22:33:51.227Z,0.82
2023-05-02T22:36:20.477Z,1.05
2023-05-02T22:38:48.682Z,1.20
2023-05-02T22:41:17.143Z,1.00
2023-05-02T22:43:45.888Z,0.90
2023-05-02T22:46:14.388Z,0.90
2023-05-02T22:48:42.946Z,1.33
2023-05-02T22:51:11.216Z,0.98
2023-05-02T22:53:40.113Z,1.33
2023-05-02T22:56:08.627Z,1.00
2023-05-02T22:58:36.903Z,1.10
2023-05-02T23:01:05.116Z,1.35
2023-05-02T23:03:34.145Z,1.05
2023-05-02T23:06:03.262Z,1.10
2023-05-02T23:08:31.443Z,0.93
2023-05-02T23:10:59.947Z,1.33
2023-05-02T23:13:28.829Z,1.08
2023-05-02T23:15:57.157Z,1.27
2023-05-02T23:18:25.725Z,1.50
2023-05-02T23:20:54.661Z,0.80
2023-05-02T23:23:22.840Z,1.00
2023-05-02T23:25:51.421Z,1.05
2023-05-02T23:28:20.144Z,1.27
2023-05-02T23:30:48.626Z,1.15
2023-05-02T23:33:17.309Z,1.00
2023-05-02T23:35:45.776Z,0.98
2023-05-02T23:38:14.093Z,1.17
2023-05-02T23:40:42.985Z,1.10
2023-05-02T23:43:13.519Z,1.33
2023-05-02T23:45:41.776Z,1.05
2023-05-02T23:48:10.147Z,1.52
2023-05-02T23:50:38.683Z,1.00
2023-05-02T23:53:07.671Z,1.42
2023-05-02T23:55:36.529Z,1.10
2023-05-02T23:58:05.524Z,1.00
